Time;durP1;ratioP1;P1;durP2;ratioP2;P2;SDS_P1;SDS_P2;PMS_P1;PMS_P2;Temp;Humidity;BMP_temperature;BMP_pressure;BME280_temperature;BME280_humidity;BME280_pressure;Samples;Min_cycle;Max_cycle;Signal;HPM_P1;HPM_P2
2023/06/08 00:02:32;;;;;;;6.90;4.30;;;;;;;;;;4843652;29;20038;-75
2023/06/08 00:06:13;;;;;;;5.70;4.15;;;;;;;;;;4846736;29;20049;-74
2023/06/08 00:09:56;;;;;;;9.13;4.07;;;;;;;;;;4847790;29;20486;-75
2023/06/08 00:13:36;;;;;;;7.18;3.90;;;;;;;;;;4847270;29;20667;-74
2023/06/08 00:17:21;;;;;;;8.85;4.07;;;;;;;;;;4843048;29;20053;-76
2023/06/08 00:21:01;;;;;;;7.22;4.38;;;;;;;;;;4846761;29;20498;-75
2023/06/08 00:24:41;;;;;;;5.72;4.05;;;;;;;;;;4842282;29;20044;-75
2023/06/08 00:28:23;;;;;;;8.98;4.43;;;;;;;;;;4850108;29;20049;-75
2023/06/08 00:32:02;;;;;;;8.70;4.22;;;;;;;;;;4847362;29;20053;-74
2023/06/08 00:35:42;;;;;;;8.60;4.80;;;;;;;;;;4852253;29;20451;-74
2023/06/08 00:39:23;;;;;;;8.20;5.10;;;;;;;;;;4857898;29;20517;-75
2023/06/08 00:43:03;;;;;;;13.05;5.65;;;;;;;;;;4859047;29;20050;-75
2023/06/08 00:46:43;;;;;;;10.75;5.45;;;;;;;;;;4855587;29;20068;-75
2023/06/08 00:50:24;;;;;;;7.07;5.32;;;;;;;;;;4854056;29;20273;-76
2023/06/08 00:54:05;;;;;;;11.13;5.20;;;;;;;;;;4856966;29;20410;-75
2023/06/08 00:57:50;;;;;;;11.52;5.40;;;;;;;;;;4856524;29;20054;-74
2023/06/08 01:01:29;;;;;;;9.48;5.47;;;;;;;;;;4849857;29;20053;-74
2023/06/08 01:05:07;;;;;;;7.00;5.20;;;;;;;;;;4855680;29;20094;-74
2023/06/08 01:08:48;;;;;;;8.00;5.60;;;;;;;;;;4854041;29;20426;-74
2023/06/08 01:12:10;;;;;;;10.10;5.38;;;;;;;;;;4858462;29;20144;-74
2023/06/08 01:15:49;;;;;;;7.80;5.50;;;;;;;;;;4849410;29;20077;-75
2023/06/08 01:19:33;;;;;;;9.27;5.88;;;;;;;;;;4856323;29;20156;-75
2023/06/08 01:22:56;;;;;;;8.68;5.40;;;;;;;;;;4847790;29;20041;-76
2023/06/08 01:26:34;;;;;;;9.75;5.28;;;;;;;;;;4852004;29;20064;-74
2023/06/08 01:30:16;;;;;;;9.50;5.00;;;;;;;;;;4847050;29;20046;-75
2023/06/08 01:33:56;;;;;;;7.97;5.20;;;;;;;;;;4852917;29;20121;-74
2023/06/08 01:37:52;;;;;;;10.85;5.07;;;;;;;;;;4852700;29;20105;-74
2023/06/08 01:41:38;;;;;;;7.70;5.00;;;;;;;;;;4858219;29;20049;-75
2023/06/08 01:45:18;;;;;;;10.70;5.00;;;;;;;;;;4850266;29;20057;-74
2023/06/08 01:48:59;;;;;;;8.70;5.03;;;;;;;;;;4847519;29;20081;-74
2023/06/08 01:52:41;;;;;;;10.60;5.28;;;;;;;;;;4840161;29;20478;-75
2023/06/08 01:56:20;;;;;;;13.40;5.57;;;;;;;;;;4854508;29;20145;-77
2023/06/08 02:00:00;;;;;;;9.50;6.22;;;;;;;;;;4852132;29;20145;-76
2023/06/08 02:03:42;;;;;;;10.35;6.38;;;;;;;;;;4854280;29;20450;-74
2023/06/08 02:07:22;;;;;;;10.20;5.68;;;;;;;;;;4855304;29;20120;-74
2023/06/08 02:11:02;;;;;;;10.45;6.28;;;;;;;;;;4849327;29;20088;-75
2023/06/08 02:14:43;;;;;;;10.50;5.60;;;;;;;;;;4851265;29;20059;-73
2023/06/08 02:18:25;;;;;;;11.60;5.85;;;;;;;;;;4856190;29;20055;-75
2023/06/08 02:22:05;;;;;;;11.23;6.57;;;;;;;;;;4853842;29;20050;-74
2023/06/08 02:25:46;;;;;;;10.63;6.40;;;;;;;;;;4853487;29;20521;-74
2023/06/08 02:29:27;;;;;;;14.82;6.50;;;;;;;;;;4848670;29;20727;-75
2023/06/08 02:33:07;;;;;;;8.80;6.22;;;;;;;;;;4853642;29;20050;-75
2023/06/08 02:36:47;;;;;;;9.88;6.28;;;;;;;;;;4856050;29;20132;-75
2023/06/08 02:40:29;;;;;;;11.93;5.82;;;;;;;;;;4855528;29;20053;-76
2023/06/08 02:44:09;;;;;;;12.63;6.55;;;;;;;;;;4856146;29;20112;-74
2023/06/08 02:47:49;;;;;;;11.20;6.20;;;;;;;;;;4857845;29;20128;-76
2023/06/08 02:51:30;;;;;;;8.55;6.15;;;;;;;;;;4847323;29;20058;-74
2023/06/08 02:55:10;;;;;;;9.63;6.30;;;;;;;;;;4847781;29;20053;-74
2023/06/08 02:58:51;;;;;;;8.13;5.57;;;;;;;;;;4855316;29;20065;-74
2023/06/08 03:02:31;;;;;;;10.50;5.97;;;;;;;;;;4851518;29;20053;-74
2023/06/08 03:06:14;;;;;;;9.63;6.50;;;;;;;;;;4858623;29;20099;-74
2023/06/08 03:09:51;;;;;;;10.35;6.15;;;;;;;;;;4857948;29;20080;-75
2023/06/08 03:13:32;;;;;;;9.30;6.13;;;;;;;;;;4852876;29;20046;-74
2023/06/08 03:17:12;;;;;;;8.63;5.85;;;;;;;;;;4849314;29;20072;-76
2023/06/08 03:20:52;;;;;;;9.05;5.70;;;;;;;;;;4856751;29;20109;-75
2023/06/08 03:24:33;;;;;;;11.25;6.00;;;;;;;;;;4858957;29;20067;-74
2023/06/08 03:28:14;;;;;;;9.05;5.97;;;;;;;;;;4858822;29;20050;-76
2023/06/08 03:31:54;;;;;;;11.88;5.72;;;;;;;;;;4854156;29;20074;-76
2023/06/08 03:35:35;;;;;;;10.55;5.95;;;;;;;;;;4856352;29;20195;-74
2023/06/08 03:39:15;;;;;;;7.90;5.97;;;;;;;;;;4854629;29;20050;-75
2023/06/08 03:42:55;;;;;;;8.65;5.85;;;;;;;;;;4854549;29;20045;-77
2023/06/08 03:46:36;;;;;;;9.00;5.57;;;;;;;;;;4855563;29;20077;-76
2023/06/08 03:50:17;;;;;;;14.27;6.03;;;;;;;;;;4853712;29;20133;-76
2023/06/08 03:53:58;;;;;;;8.75;5.38;;;;;;;;;;4850896;29;20061;-75
2023/06/08 03:57:40;;;;;;;10.90;5.75;;;;;;;;;;4853308;29;20387;-76
2023/06/08 04:01:22;;;;;;;6.80;5.15;;;;;;;;;;4850278;29;20042;-75
2023/06/08 04:05:00;;;;;;;8.48;5.22;;;;;;;;;;4848608;29;20053;-76
2023/06/08 04:08:41;;;;;;;9.05;5.45;;;;;;;;;;4855382;29;20084;-75
2023/06/08 04:12:21;;;;;;;8.10;5.60;;;;;;;;;;4849220;29;20132;-75
2023/06/08 04:16:07;;;;;;;7.65;5.93;;;;;;;;;;4854939;29;20355;-75
2023/06/08 04:19:44;;;;;;;12.25;5.78;;;;;;;;;;4856059;29;20049;-75
2023/06/08 04:23:27;;;;;;;11.00;6.13;;;;;;;;;;4854371;29;20486;-76
2023/06/08 04:27:05;;;;;;;7.70;5.80;;;;;;;;;;4856268;29;20056;-75
2023/06/08 04:30:45;;;;;;;8.65;5.93;;;;;;;;;;4854391;29;20049;-76
2023/06/08 04:34:25;;;;;;;11.25;5.78;;;;;;;;;;4857782;29;20498;-74
2023/06/08 04:38:07;;;;;;;9.85;6.10;;;;;;;;;;4851308;29;20064;-76
2023/06/08 04:41:46;;;;;;;11.20;6.03;;;;;;;;;;4853117;29;20088;-75
2023/06/08 04:45:26;;;;;;;18.42;6.43;;;;;;;;;;4854265;29;20562;-74
2023/06/08 04:49:06;;;;;;;12.27;6.05;;;;;;;;;;4855883;29;20592;-74
2023/06/08 04:52:47;;;;;;;11.77;6.25;;;;;;;;;;4846566;29;20106;-75
2023/06/08 04:56:29;;;;;;;9.43;5.45;;;;;;;;;;4849887;29;20112;-75
2023/06/08 05:00:09;;;;;;;11.50;5.95;;;;;;;;;;4846269;29;20087;-76
2023/06/08 05:03:51;;;;;;;11.95;6.18;;;;;;;;;;4855672;29;20057;-77
2023/06/08 05:07:31;;;;;;;11.43;6.15;;;;;;;;;;4854266;29;20057;-75
2023/06/08 05:11:01;;;;;;;17.63;6.88;;;;;;;;;;4857301;29;20080;-77
2023/06/08 05:13:27;;;;;;;12.38;6.10;;;;;;;;;;4848650;29;20510;-77
2023/06/08 05:15:58;;;;;;;9.65;5.93;;;;;;;;;;4851855;29;20041;-77
2023/06/08 05:18:25;;;;;;;17.33;6.72;;;;;;;;;;4846366;29;20136;-68
2023/06/08 05:20:51;;;;;;;11.02;6.68;;;;;;;;;;4851950;29;20049;-69
2023/06/08 05:23:20;;;;;;;11.32;6.00;;;;;;;;;;4848290;29;20057;-72
2023/06/08 05:25:46;;;;;;;9.25;5.68;;;;;;;;;;4857908;29;20425;-70
2023/06/08 05:28:14;;;;;;;8.48;5.50;;;;;;;;;;4846797;29;20550;-68
2023/06/08 05:30:40;;;;;;;10.27;5.55;;;;;;;;;;4852991;29;20124;-70
2023/06/08 05:33:06;;;;;;;13.45;6.13;;;;;;;;;;4854216;29;20077;-72
2023/06/08 05:35:32;;;;;;;11.43;6.25;;;;;;;;;;4855914;29;20101;-71
2023/06/08 05:37:58;;;;;;;30.20;7.88;;;;;;;;;;4853467;29;20463;-72
2023/06/08 05:40:24;;;;;;;44.55;9.02;;;;;;;;;;4850540;29;20128;-71
2023/06/08 05:42:51;;;;;;;39.17;8.98;;;;;;;;;;4848959;29;20665;-72
2023/06/08 05:45:17;;;;;;;62.90;10.35;;;;;;;;;;4855238;29;20057;-73
2023/06/08 05:48:04;;;;;;;67.03;9.63;;;;;;;;;;4855101;29;20514;-71
2023/06/08 05:51:11;;;;;;;53.03;11.00;;;;;;;;;;4845941;29;20770;-71
2023/06/08 05:54:52;;;;;;;46.60;9.55;;;;;;;;;;4846730;29;20588;-72
2023/06/08 05:58:23;;;;;;;36.25;7.75;;;;;;;;;;4849794;29;20477;-71
2023/06/08 06:00:49;;;;;;;25.13;6.93;;;;;;;;;;4853291;29;20254;-73
2023/06/08 06:03:16;;;;;;;18.20;6.78;;;;;;;;;;4856591;29;20046;-76
2023/06/08 06:06:22;;;;;;;23.98;7.57;;;;;;;;;;4865883;29;20073;-71
2023/06/08 06:10:02;;;;;;;24.58;6.07;;;;;;;;;;4848139;29;20077;-67
2023/06/08 06:13:43;;;;;;;15.95;6.30;;;;;;;;;;4831737;29;20188;-69
2023/06/08 06:16:43;;;;;;;21.10;6.03;;;;;;;;;;4850123;29;20164;-70
2023/06/08 06:19:49;;;;;;;9.43;5.85;;;;;;;;;;4847964;29;20049;-69
2023/06/08 06:23:30;;;;;;;10.20;5.63;;;;;;;;;;4849351;29;20053;-71
2023/06/08 06:27:13;;;;;;;8.13;5.18;;;;;;;;;;4846992;29;20046;-69
2023/06/08 06:30:53;;;;;;;9.40;5.53;;;;;;;;;;4849359;29;20060;-70
2023/06/08 06:34:34;;;;;;;12.05;5.78;;;;;;;;;;4842790;29;20077;-70
2023/06/08 06:38:15;;;;;;;11.38;5.32;;;;;;;;;;4852192;29;20053;-70
2023/06/08 06:41:57;;;;;;;12.65;4.32;;;;;;;;;;4855062;29;20056;-66
2023/06/08 06:45:38;;;;;;;11.55;4.70;;;;;;;;;;4855773;29;20057;-67
2023/06/08 06:49:19;;;;;;;11.23;3.72;;;;;;;;;;4852906;29;20125;-66
2023/06/08 06:52:59;;;;;;;7.78;3.70;;;;;;;;;;4859254;29;20831;-64
2023/06/08 06:56:40;;;;;;;9.10;3.50;;;;;;;;;;4852595;29;20064;-68
2023/06/08 07:00:21;;;;;;;10.57;3.60;;;;;;;;;;4852046;29;20053;-69
2023/06/08 07:04:00;;;;;;;5.70;3.35;;;;;;;;;;4854701;29;20529;-69
2023/06/08 07:07:41;;;;;;;7.07;3.42;;;;;;;;;;4860426;29;20049;-66
2023/06/08 07:11:24;;;;;;;9.45;3.45;;;;;;;;;;4858764;29;20049;-67
2023/06/08 07:15:10;;;;;;;7.50;3.10;;;;;;;;;;4855755;29;20065;-67
2023/06/08 07:18:50;;;;;;;5.38;2.97;;;;;;;;;;4852831;29;20117;-69
2023/06/08 07:21:52;;;;;;;15.85;3.42;;;;;;;;;;4847160;29;20502;-66
2023/06/08 07:24:19;;;;;;;20.83;3.55;;;;;;;;;;4859129;29;20057;-66
2023/06/08 07:26:45;;;;;;;8.38;3.17;;;;;;;;;;4853830;29;20092;-66
2023/06/08 07:29:52;;;;;;;9.57;3.38;;;;;;;;;;4852055;29;20608;-68
2023/06/08 07:33:08;;;;;;;6.55;3.10;;;;;;;;;;4852301;29;20160;-67
2023/06/08 07:36:48;;;;;;;5.22;2.92;;;;;;;;;;4850364;29;20060;-64
2023/06/08 07:40:29;;;;;;;6.00;2.90;;;;;;;;;;4848317;29;20045;-66
2023/06/08 07:44:09;;;;;;;3.95;2.72;;;;;;;;;;4847504;29;20060;-65
2023/06/08 07:47:50;;;;;;;6.72;2.83;;;;;;;;;;4841815;29;20509;-65
2023/06/08 07:51:30;;;;;;;5.93;2.30;;;;;;;;;;4846766;29;20251;-66
2023/06/08 07:55:11;;;;;;;8.20;2.58;;;;;;;;;;4845219;29;20149;-66
2023/06/08 07:58:51;;;;;;;5.13;2.53;;;;;;;;;;4846281;29;20503;-64
2023/06/08 08:02:32;;;;;;;6.95;2.63;;;;;;;;;;4843668;29;20312;-65
2023/06/08 08:06:13;;;;;;;6.63;2.83;;;;;;;;;;4850351;29;20664;-64
2023/06/08 08:09:53;;;;;;;6.68;3.10;;;;;;;;;;4850382;29;20053;-64
2023/06/08 08:13:35;;;;;;;6.65;3.17;;;;;;;;;;4852081;29;20049;-63
2023/06/08 08:17:15;;;;;;;8.73;2.70;;;;;;;;;;4854199;29;20410;-64
2023/06/08 08:20:56;;;;;;;7.88;3.10;;;;;;;;;;4853262;29;20057;-66
2023/06/08 08:24:39;;;;;;;7.80;3.13;;;;;;;;;;4852435;29;20049;-65
2023/06/08 08:28:19;;;;;;;9.82;3.25;;;;;;;;;;4854351;29;20049;-65
2023/06/08 08:31:59;;;;;;;9.13;3.00;;;;;;;;;;4850174;29;20492;-66
2023/06/08 08:35:40;;;;;;;7.95;3.17;;;;;;;;;;4855601;29;20120;-67
2023/06/08 08:39:22;;;;;;;11.60;3.63;;;;;;;;;;4853517;29;20053;-63
2023/06/08 08:43:02;;;;;;;7.57;3.65;;;;;;;;;;4857195;29;20053;-64
2023/06/08 08:46:42;;;;;;;8.25;3.90;;;;;;;;;;4849581;29;20045;-64
2023/06/08 08:50:23;;;;;;;7.97;3.67;;;;;;;;;;4855378;29;20049;-64
2023/06/08 08:54:04;;;;;;;8.57;2.92;;;;;;;;;;4845910;29;20069;-67
2023/06/08 08:57:09;;;;;;;4.43;3.03;;;;;;;;;;4852304;29;20060;-65
2023/06/08 08:59:36;;;;;;;5.47;2.90;;;;;;;;;;4853569;29;20192;-68
2023/06/08 09:02:03;;;;;;;12.60;3.20;;;;;;;;;;4855680;29;20102;-64
2023/06/08 09:04:29;;;;;;;7.22;2.53;;;;;;;;;;4853351;29;20045;-65
2023/06/08 09:07:37;;;;;;;5.20;2.60;;;;;;;;;;4849870;29;20100;-64
2023/06/08 09:11:21;;;;;;;7.65;2.97;;;;;;;;;;4855714;29;20112;-65
2023/06/08 09:15:00;;;;;;;8.10;3.20;;;;;;;;;;4856204;29;20140;-68
2023/06/08 09:18:42;;;;;;;4.45;2.50;;;;;;;;;;4855305;29;20457;-64
2023/06/08 09:22:22;;;;;;;9.18;2.90;;;;;;;;;;4857548;29;20418;-66
2023/06/08 09:26:16;;;;;;;6.15;2.75;;;;;;;;;;4857100;29;20470;-66
2023/06/08 09:30:16;;;;;;;13.98;2.70;;;;;;;;;;4848306;29;20494;-68
2023/06/08 09:34:09;;;;;;;8.63;2.95;;;;;;;;;;4847997;29;20494;-64
2023/06/08 09:37:52;;;;;;;6.28;3.22;;;;;;;;;;4848601;29;20064;-63
2023/06/08 09:41:31;;;;;;;4.30;2.83;;;;;;;;;;4848782;29;20196;-70
2023/06/08 09:45:12;;;;;;;3.30;2.50;;;;;;;;;;4853512;29;20458;-68
2023/06/08 09:48:52;;;;;;;7.60;2.75;;;;;;;;;;4855820;29;20042;-69
2023/06/08 09:52:32;;;;;;;6.97;3.45;;;;;;;;;;4852653;29;20113;-72
2023/06/08 09:56:12;;;;;;;8.10;3.03;;;;;;;;;;4847653;29;20077;-69
2023/06/08 09:59:56;;;;;;;6.07;3.60;;;;;;;;;;4851789;29;20089;-69
2023/06/08 10:03:15;;;;;;;5.45;2.92;;;;;;;;;;4846333;29;20080;-68
2023/06/08 10:06:55;;;;;;;370.40;20.13;;;;;;;;;;4851329;29;20098;-70
2023/06/08 10:10:38;;;;;;;9.52;3.33;;;;;;;;;;4851676;29;20798;-69
2023/06/08 10:14:20;;;;;;;6.63;3.40;;;;;;;;;;4851816;29;20082;-70
2023/06/08 10:17:21;;;;;;;5.50;3.80;;;;;;;;;;4851457;29;20060;-68
2023/06/08 10:19:49;;;;;;;7.90;3.35;;;;;;;;;;4863188;29;20061;-67
2023/06/08 10:22:15;;;;;;;8.63;3.97;;;;;;;;;;4862999;29;20053;-71
2023/06/08 10:24:41;;;;;;;5.85;3.75;;;;;;;;;;4861853;29;20185;-70
2023/06/08 10:27:09;;;;;;;6.20;3.92;;;;;;;;;;4857861;29;20566;-68
2023/06/08 10:29:36;;;;;;;8.88;3.65;;;;;;;;;;4851975;29;20061;-66
2023/06/08 10:32:11;;;;;;;14.48;4.43;;;;;;;;;;4854264;29;20057;-67
2023/06/08 10:34:42;;;;;;;18.58;4.30;;;;;;;;;;4850491;29;20041;-67
2023/06/08 10:37:36;;;;;;;8.15;3.60;;;;;;;;;;4855996;29;20662;-69
2023/06/08 10:40:10;;;;;;;11.00;4.45;;;;;;;;;;4849618;29;20109;-70
2023/06/08 10:42:36;;;;;;;7.30;3.60;;;;;;;;;;4842195;29;20414;-69
2023/06/08 10:45:07;;;;;;;5.72;3.38;;;;;;;;;;4853347;29;20550;-70
2023/06/08 10:47:38;;;;;;;6.82;3.00;;;;;;;;;;4853491;29;20157;-66
2023/06/08 10:50:10;;;;;;;5.80;3.50;;;;;;;;;;4852579;29;20136;-68
2023/06/08 10:52:44;;;;;;;9.60;3.38;;;;;;;;;;4861671;29;20506;-68
2023/06/08 10:55:13;;;;;;;10.82;3.53;;;;;;;;;;4855873;29;20506;-67
2023/06/08 10:57:52;;;;;;;6.45;3.22;;;;;;;;;;4857721;29;20065;-70
2023/06/08 11:00:25;;;;;;;6.72;3.50;;;;;;;;;;4852554;29;20053;-69
2023/06/08 11:04:07;;;;;;;6.70;3.80;;;;;;;;;;4853628;29;20057;-69
2023/06/08 11:07:47;;;;;;;8.77;4.10;;;;;;;;;;4858694;29;20052;-69
2023/06/08 11:11:31;;;;;;;8.57;3.72;;;;;;;;;;4857695;29;20186;-68
2023/06/08 11:15:11;;;;;;;7.15;3.95;;;;;;;;;;4859735;29;20060;-70
2023/06/08 11:18:52;;;;;;;7.53;4.00;;;;;;;;;;4852672;29;20049;-70
2023/06/08 11:22:32;;;;;;;7.80;3.45;;;;;;;;;;4863066;29;20195;-69
2023/06/08 11:26:13;;;;;;;6.90;3.20;;;;;;;;;;4858442;29;20065;-71
2023/06/08 11:29:55;;;;;;;11.00;3.63;;;;;;;;;;4858661;29;20088;-69
2023/06/08 11:33:34;;;;;;;6.55;2.70;;;;;;;;;;4853303;29;20550;-71
2023/06/08 11:37:17;;;;;;;5.38;3.00;;;;;;;;;;4860822;29;20105;-68
2023/06/08 11:40:58;;;;;;;9.35;3.40;;;;;;;;;;4856195;29;20101;-68
2023/06/08 11:44:38;;;;;;;9.20;4.53;;;;;;;;;;4852314;29;20050;-72
2023/06/08 11:48:21;;;;;;;7.15;4.15;;;;;;;;;;4858972;29;20045;-70
2023/06/08 11:52:04;;;;;;;5.82;3.38;;;;;;;;;;4849576;29;20410;-67
2023/06/08 11:56:00;;;;;;;6.20;3.63;;;;;;;;;;4856827;29;20116;-74
2023/06/08 11:59:40;;;;;;;8.50;2.83;;;;;;;;;;4861638;29;20053;-71
2023/06/08 12:03:21;;;;;;;5.97;2.47;;;;;;;;;;4850858;29;20057;-68
2023/06/08 12:07:04;;;;;;;4.50;3.10;;;;;;;;;;4856823;29;20042;-73
2023/06/08 12:10:05;;;;;;;8.48;3.08;;;;;;;;;;4865114;29;20080;-71
2023/06/08 12:12:32;;;;;;;4.10;2.47;;;;;;;;;;4862803;29;20466;-72
2023/06/08 12:14:58;;;;;;;5.22;2.35;;;;;;;;;;4862758;29;20042;-71
2023/06/08 12:18:05;;;;;;;4.25;2.88;;;;;;;;;;4856552;29;20057;-69
2023/06/08 12:21:47;;;;;;;4.70;3.20;;;;;;;;;;4854697;29;20567;-70
2023/06/08 12:25:27;;;;;;;4.88;2.80;;;;;;;;;;4851702;29;20508;-69
2023/06/08 12:29:10;;;;;;;8.85;4.70;;;;;;;;;;4853503;29;20049;-71
2023/06/08 12:32:53;;;;;;;7.53;3.85;;;;;;;;;;4847779;29;20516;-67
2023/06/08 12:36:34;;;;;;;8.70;4.60;;;;;;;;;;4855629;29;20121;-69
2023/06/08 12:40:14;;;;;;;9.45;4.38;;;;;;;;;;4854580;29;20080;-70
2023/06/08 12:43:51;;;;;;;6.45;3.83;;;;;;;;;;4849998;29;20148;-70
2023/06/08 12:46:57;;;;;;;5.82;3.42;;;;;;;;;;4850584;29;20064;-71
2023/06/08 12:50:38;;;;;;;5.97;3.58;;;;;;;;;;4848581;29;20049;-69
2023/06/08 12:54:19;;;;;;;15.73;3.38;;;;;;;;;;4843852;29;20068;-69
2023/06/08 12:58:01;;;;;;;9.13;3.28;;;;;;;;;;4856486;29;20063;-72
2023/06/08 13:01:41;;;;;;;5.55;2.75;;;;;;;;;;4848129;29;20048;-73
2023/06/08 13:05:22;;;;;;;9.25;3.20;;;;;;;;;;4851537;29;20490;-71
2023/06/08 13:09:03;;;;;;;5.72;2.63;;;;;;;;;;4843521;29;20045;-72
2023/06/08 13:12:43;;;;;;;8.48;2.55;;;;;;;;;;4850504;29;20058;-70
2023/06/08 13:16:25;;;;;;;8.65;3.05;;;;;;;;;;4852848;29;20132;-71
2023/06/08 13:20:07;;;;;;;9.40;2.88;;;;;;;;;;4851714;29;20489;-71
2023/06/08 13:23:47;;;;;;;5.78;2.83;;;;;;;;;;4849429;29;20041;-70
2023/06/08 13:27:27;;;;;;;10.07;2.38;;;;;;;;;;4854013;29;20375;-70
2023/06/08 13:31:11;;;;;;;5.53;2.45;;;;;;;;;;4847406;29;20489;-71
2023/06/08 13:34:50;;;;;;;6.28;2.33;;;;;;;;;;4849860;29;20055;-70
2023/06/08 13:38:32;;;;;;;3.83;2.10;;;;;;;;;;4850281;29;20053;-71
2023/06/08 13:42:12;;;;;;;14.20;2.72;;;;;;;;;;4854704;29;20545;-71
2023/06/08 13:45:57;;;;;;;11.98;2.58;;;;;;;;;;4850726;29;20061;-71
2023/06/08 13:49:34;;;;;;;5.07;2.50;;;;;;;;;;4850982;29;20072;-69
2023/06/08 13:53:15;;;;;;;5.00;2.35;;;;;;;;;;4856798;29;20065;-72
2023/06/08 13:56:55;;;;;;;7.57;2.80;;;;;;;;;;4849877;29;20068;-70
2023/06/08 14:00:40;;;;;;;7.22;2.65;;;;;;;;;;4842831;29;20478;-72
2023/06/08 14:04:21;;;;;;;6.72;3.13;;;;;;;;;;4842092;29;20052;-70
2023/06/08 14:07:59;;;;;;;6.43;3.08;;;;;;;;;;4855167;29;20104;-70
2023/06/08 14:10:30;;;;;;;8.05;3.03;;;;;;;;;;4850788;29;20070;-71
2023/06/08 14:13:36;;;;;;;9.27;3.03;;;;;;;;;;4849263;29;20053;-70
2023/06/08 14:17:17;;;;;;;7.18;2.95;;;;;;;;;;4849839;29;20415;-70
2023/06/08 14:20:57;;;;;;;6.15;3.10;;;;;;;;;;4852674;29;20391;-71
2023/06/08 14:24:38;;;;;;;5.35;2.80;;;;;;;;;;4850407;29;20049;-70
2023/06/08 14:28:20;;;;;;;8.27;2.78;;;;;;;;;;4851121;29;20509;-70
2023/06/08 14:32:00;;;;;;;15.82;3.00;;;;;;;;;;4853053;29;20410;-70
2023/06/08 14:35:42;;;;;;;7.10;2.60;;;;;;;;;;4849503;29;20045;-69
2023/06/08 14:39:23;;;;;;;10.98;3.15;;;;;;;;;;4850456;29;20053;-69
2023/06/08 14:43:04;;;;;;;6.07;2.92;;;;;;;;;;4851524;29;20210;-69
2023/06/08 14:46:46;;;;;;;10.77;3.47;;;;;;;;;;4852400;29;20064;-70
2023/06/08 14:50:30;;;;;;;7.85;2.45;;;;;;;;;;4849432;29;20038;-74
2023/06/08 14:54:08;;;;;;;5.70;2.30;;;;;;;;;;4852398;29;20380;-70
2023/06/08 14:57:49;;;;;;;8.27;2.65;;;;;;;;;;4854603;29;20085;-70
2023/06/08 15:01:32;;;;;;;7.25;2.58;;;;;;;;;;4848264;29;20130;-73
2023/06/08 15:05:16;;;;;;;10.15;2.85;;;;;;;;;;4846257;29;20413;-78
2023/06/08 15:08:54;;;;;;;11.13;3.10;;;;;;;;;;4858158;29;20634;-72
2023/06/08 15:12:38;;;;;;;10.23;2.80;;;;;;;;;;4844417;29;20056;-69
2023/06/08 15:16:21;;;;;;;8.35;2.60;;;;;;;;;;4853790;29;20251;-71
2023/06/08 15:20:05;;;;;;;9.55;2.70;;;;;;;;;;4848678;29;20064;-71
2023/06/08 15:23:42;;;;;;;6.30;2.47;;;;;;;;;;4852339;29;20041;-71
2023/06/08 15:27:22;;;;;;;8.75;2.58;;;;;;;;;;4853890;29;20415;-72
2023/06/08 15:31:03;;;;;;;8.45;2.53;;;;;;;;;;4849984;29;20065;-76
2023/06/08 15:34:43;;;;;;;7.07;2.42;;;;;;;;;;4847311;29;20097;-72
2023/06/08 15:38:23;;;;;;;9.25;2.70;;;;;;;;;;4848378;29;20509;-73
2023/06/08 15:42:06;;;;;;;10.88;2.80;;;;;;;;;;4848993;29;20064;-72
2023/06/08 15:45:06;;;;;;;9.73;2.55;;;;;;;;;;4851678;29;20410;-74
2023/06/08 15:48:12;;;;;;;6.40;2.50;;;;;;;;;;4849253;29;20061;-70
2023/06/08 15:51:13;;;;;;;10.05;2.83;;;;;;;;;;4853869;29;20369;-74
2023/06/08 15:53:40;;;;;;;5.15;2.78;;;;;;;;;;4849068;29;20053;-72
2023/06/08 15:56:06;;;;;;;13.68;3.22;;;;;;;;;;4850978;29;20054;-73
2023/06/08 15:58:32;;;;;;;11.15;3.17;;;;;;;;;;4848347;29;20061;-72
2023/06/08 16:01:01;;;;;;;10.10;3.03;;;;;;;;;;4847987;29;20144;-72
2023/06/08 16:03:30;;;;;;;13.18;3.83;;;;;;;;;;4846428;29;20061;-70
2023/06/08 16:05:58;;;;;;;12.95;4.90;;;;;;;;;;4850465;29;20136;-71
2023/06/08 16:08:24;;;;;;;10.85;3.38;;;;;;;;;;4846494;29;20498;-70
2023/06/08 16:10:52;;;;;;;8.77;3.50;;;;;;;;;;4851058;29;20110;-71
2023/06/08 16:13:18;;;;;;;15.50;2.97;;;;;;;;;;4871323;29;20130;-73
2023/06/08 16:15:44;;;;;;;10.88;4.10;;;;;;;;;;4852723;29;20108;-70
2023/06/08 16:18:10;;;;;;;8.98;3.17;;;;;;;;;;4852761;29;20045;-73
2023/06/08 16:20:38;;;;;;;9.90;3.17;;;;;;;;;;4849724;29;20057;-73
2023/06/08 16:23:04;;;;;;;9.55;2.92;;;;;;;;;;4853039;29;20357;-70
2023/06/08 16:25:30;;;;;;;14.98;3.20;;;;;;;;;;4848992;29;20053;-73
2023/06/08 16:27:56;;;;;;;11.70;3.25;;;;;;;;;;4840244;29;20065;-70
2023/06/08 16:30:26;;;;;;;10.48;3.47;;;;;;;;;;4838413;29;20061;-71
2023/06/08 16:33:00;;;;;;;10.65;3.70;;;;;;;;;;4844775;29;20524;-71
2023/06/08 16:35:25;;;;;;;11.15;3.22;;;;;;;;;;4842857;29;20052;-72
2023/06/08 16:37:53;;;;;;;9.52;3.22;;;;;;;;;;4841982;29;20058;-71
2023/06/08 16:40:19;;;;;;;11.20;3.47;;;;;;;;;;4837058;29;20160;-72
2023/06/08 16:42:46;;;;;;;9.55;3.22;;;;;;;;;;4846871;29;20219;-71
2023/06/08 16:45:12;;;;;;;13.23;3.65;;;;;;;;;;4852837;29;20419;-67
2023/06/08 16:47:39;;;;;;;13.75;3.25;;;;;;;;;;4832526;29;20197;-68
2023/06/08 16:50:10;;;;;;;9.73;3.30;;;;;;;;;;4830344;29;20070;-69
2023/06/08 16:52:37;;;;;;;9.60;3.65;;;;;;;;;;4836562;29;20144;-66
2023/06/08 16:55:44;;;;;;;10.82;3.40;;;;;;;;;;4839669;29;20571;-69
2023/06/08 16:59:27;;;;;;;12.55;3.30;;;;;;;;;;4834951;29;20149;-68
2023/06/08 17:03:07;;;;;;;13.77;3.67;;;;;;;;;;4839644;29;20739;-67
2023/06/08 17:06:48;;;;;;;7.88;3.42;;;;;;;;;;4847163;29;20077;-65
2023/06/08 17:10:28;;;;;;;14.77;4.00;;;;;;;;;;4842034;29;20343;-66
2023/06/08 17:14:08;;;;;;;11.65;3.30;;;;;;;;;;4837224;29;20053;-65
2023/06/08 17:17:49;;;;;;;10.13;3.40;;;;;;;;;;4833357;29;20057;-65
2023/06/08 17:21:29;;;;;;;13.35;3.70;;;;;;;;;;4835863;29;20073;-68
2023/06/08 17:25:09;;;;;;;16.58;3.80;;;;;;;;;;4832934;29;20105;-65
2023/06/08 17:28:52;;;;;;;12.90;3.95;;;;;;;;;;4843132;29;20410;-67
2023/06/08 17:32:33;;;;;;;12.88;4.18;;;;;;;;;;4837775;29;20359;-66
2023/06/08 17:36:14;;;;;;;10.10;3.50;;;;;;;;;;4845492;29;20092;-66
2023/06/08 17:39:55;;;;;;;10.13;3.60;;;;;;;;;;4828437;29;20059;-69
2023/06/08 17:43:06;;;;;;;10.00;3.90;;;;;;;;;;4832989;29;20083;-69
2023/06/08 17:46:47;;;;;;;10.25;3.63;;;;;;;;;;4841289;29;20414;-69
2023/06/08 17:50:28;;;;;;;13.27;3.60;;;;;;;;;;4842181;29;20060;-67
2023/06/08 17:54:10;;;;;;;13.05;3.75;;;;;;;;;;4841531;29;20131;-66
2023/06/08 17:57:50;;;;;;;13.68;3.88;;;;;;;;;;4851670;29;20081;-68
2023/06/08 18:01:31;;;;;;;10.65;3.20;;;;;;;;;;4833175;29;20489;-69
2023/06/08 18:05:11;;;;;;;13.63;3.70;;;;;;;;;;4840879;29;20136;-65
2023/06/08 18:08:51;;;;;;;14.85;4.70;;;;;;;;;;4833595;29;20511;-68
2023/06/08 18:12:32;;;;;;;12.13;3.92;;;;;;;;;;4839023;29;20109;-69
2023/06/08 18:16:13;;;;;;;9.48;3.55;;;;;;;;;;4837204;29;20395;-66
2023/06/08 18:20:00;;;;;;;12.63;3.92;;;;;;;;;;4835622;29;20860;-65
2023/06/08 18:23:21;;;;;;;11.77;3.30;;;;;;;;;;4836599;29;20057;-67
2023/06/08 18:27:02;;;;;;;11.13;3.63;;;;;;;;;;4837307;29;20758;-66
2023/06/08 18:30:45;;;;;;;13.18;3.70;;;;;;;;;;4851210;29;20042;-69
2023/06/08 18:34:25;;;;;;;13.50;3.90;;;;;;;;;;4840492;29;20053;-66
2023/06/08 18:38:05;;;;;;;11.10;4.00;;;;;;;;;;4839334;29;20675;-70
2023/06/08 18:41:45;;;;;;;16.77;4.70;;;;;;;;;;4837985;29;20569;-68
2023/06/08 18:45:26;;;;;;;12.90;3.97;;;;;;;;;;4835921;29;20088;-67
2023/06/08 18:49:07;;;;;;;14.60;3.83;;;;;;;;;;4835282;29;20053;-68
2023/06/08 18:52:48;;;;;;;13.02;4.07;;;;;;;;;;4843513;29;20119;-67
2023/06/08 18:56:32;;;;;;;15.77;4.20;;;;;;;;;;4853100;29;20057;-68
2023/06/08 19:00:12;;;;;;;12.23;3.90;;;;;;;;;;4832078;29;20069;-65
2023/06/08 19:03:55;;;;;;;14.07;4.25;;;;;;;;;;4854588;29;20300;-67
2023/06/08 19:07:39;;;;;;;12.85;4.25;;;;;;;;;;4844096;29;20181;-64
2023/06/08 19:11:20;;;;;;;13.48;4.00;;;;;;;;;;4850163;29;20074;-68
2023/06/08 19:15:01;;;;;;;11.55;3.95;;;;;;;;;;4851361;29;20498;-67
2023/06/08 19:18:43;;;;;;;11.68;4.13;;;;;;;;;;4846909;29;20057;-63
2023/06/08 19:22:29;;;;;;;13.23;3.50;;;;;;;;;;4850485;29;20101;-63
2023/06/08 19:26:09;;;;;;;10.93;4.00;;;;;;;;;;4849390;29;20090;-65
2023/06/08 19:29:50;;;;;;;13.27;4.18;;;;;;;;;;4848309;29;20046;-64
2023/06/08 19:33:32;;;;;;;13.40;3.95;;;;;;;;;;4838620;29;20575;-63
2023/06/08 19:37:11;;;;;;;13.35;4.22;;;;;;;;;;4851392;29;20076;-65
2023/06/08 19:40:53;;;;;;;10.65;4.45;;;;;;;;;;4850561;29;20477;-66
2023/06/08 19:43:54;;;;;;;13.27;4.15;;;;;;;;;;4846106;29;20053;-68
2023/06/08 19:46:23;;;;;;;13.02;4.57;;;;;;;;;;4848347;29;20057;-64
2023/06/08 19:48:50;;;;;;;12.48;4.80;;;;;;;;;;4850006;29;20198;-66
2023/06/08 19:51:16;;;;;;;15.32;4.10;;;;;;;;;;4842767;29;20067;-64
2023/06/08 19:53:43;;;;;;;12.15;4.70;;;;;;;;;;4849780;29;20057;-68
2023/06/08 19:56:17;;;;;;;18.35;4.47;;;;;;;;;;4848809;29;20530;-65
2023/06/08 19:58:46;;;;;;;15.48;4.40;;;;;;;;;;4855143;29;20061;-66
2023/06/08 20:01:17;;;;;;;16.13;4.53;;;;;;;;;;4849353;29;20089;-65
2023/06/08 20:03:43;;;;;;;13.75;4.10;;;;;;;;;;4854646;29;20064;-67
2023/06/08 20:06:15;;;;;;;12.88;4.32;;;;;;;;;;4849952;29;20061;-64
2023/06/08 20:08:41;;;;;;;13.88;4.95;;;;;;;;;;4850986;29;20048;-71